• Join FlightAware (Why Join?)
  • Login
  • US Flag 
06:19AM EDT


 

Airport Tracker/Info


-or-


 

Live Flight TrackerFlight Track Log ✈ EMD21 ✈ 24-Jul-2013 ✈ KMLC - KDAL

Flight Track Log - Related Links

Times and Time Zones

All times are in EDT time to prevent confusion due to time zone crossing. See the EMD21 flight status page for this flight to view local times or setup timezone preferences in your user account.

Time Position Orientation Groundspeed Altitude Reporting Facility
EDT Latitude Longitude Course Direction KTS MPH feet Rate Location/Type
02:00PM 34.8375 -95.8450 204° Southwest 231 266 5,300  Level Fort Worth Center
02:01PM 34.7961 -95.8661 203° Southwest 200 230 6,900 1,500 Climbing Fort Worth Center
02:02PM 34.7567 -95.8844 201° Southwest 175 201 8,400 1,320 Climbing Fort Worth Center
02:03PM 34.7069 -95.9106 203° Southwest 175 201 9,600 1,200 Climbing Fort Worth Center
02:04PM 34.5704 -95.9509 204° Southwest  Level Estimated
02:04PM 34.6633 -95.9342 204° Southwest 175 201 10,800  Level Fort Worth Center
02:05PM 34.6136 -95.9578 201° Southwest 175 201 12,000 600 Climbing Fort Worth Center
02:06PM 34.5617 -95.9864 204° Southwest 189 217 12,100  Climbing Fort Worth Center
02:07PM 34.4994 -96.0175 202° Southwest 218 251 12,100  Level Fort Worth Center
02:08PM 34.4372 -96.0514 204° Southwest 240 276 12,100 -60 Level Fort Worth Center
02:09PM 34.3728 -96.0850 203° Southwest 245 282 12,000  Descending Fort Worth Center
02:10PM 34.3086 -96.1161 202° Southwest 255 293 12,100  Climbing Fort Worth Center
02:11PM 34.2483 -96.1472 203° Southwest 255 293 12,100 -60 Level Fort Worth Center
02:12PM 34.1839 -96.1808 203° Southwest 255 293 12,000  Descending Fort Worth Center
02:13PM 34.1217 -96.2117 202° Southwest 255 293 12,100  Climbing Fort Worth Center
02:14PM 34.0614 -96.2428 203° Southwest 255 293 12,000 -60 Descending Fort Worth Center
02:15PM 33.9972 -96.2761 203° Southwest 255 293 12,000  Level Fort Worth Center
02:16PM 33.9347 -96.3094 204° Southwest 255 293 12,000  Level Fort Worth Center
02:17PM 33.8725 -96.3403 202° Southwest 255 293 12,000 -600 Level Fort Worth Center
02:18PM 33.8017 -96.3736 201° Southwest 248 285 10,900 -960 Descending Fort Worth Center
02:19PM 33.7353 -96.4069 203° Southwest 261 300 10,100 -480 Descending Fort Worth Center
02:20PM 33.6686 -96.4400 202° Southwest 254 292 10,000 -480 Descending Fort Worth Center
02:21PM 33.6083 -96.4706 203° Southwest 248 285 9,200 -1,200 Descending Fort Worth Center
02:22PM 33.5378 -96.5064 203° Southwest 261 300 7,600 -1,620 Descending Fort Worth Center
02:23PM 33.4733 -96.5369 202° Southwest 261 300 6,000 -1,140 Descending Fort Worth Center
02:24PM 33.4131 -96.5697 204° Southwest 250 288 5,400 -900 Descending Fort Worth Center
02:25PM 33.3506 -96.6003 202° Southwest 250 288 4,200 -720 Descending Fort Worth Center
02:26PM 33.2944 -96.6406 211° Southwest 235 270 4,000 -360 Descending Fort Worth Center
02:27PM 33.2403 -96.6783 210° Southwest 230 265 3,500 -540 Descending Fort Worth Center
02:28PM 33.1883 -96.7158 211° Southwest 230 265 3,000 -300 Descending Fort Worth Center
02:29PM 33.1447 -96.7411 206° Southwest 218 251 3,000  Level Fort Worth Center
02:30PM 33.1167 -96.7500 195° South 192 221 3,000  Level Dallas / Fort Worth TRACON
02:31PM 33.0667 -96.7833 209° Southwest 199 229 3,000  Level Dallas / Fort Worth TRACON
02:32PM 33.0167 -96.8167 209° Southwest 201 231 3,000 -180 Level Dallas / Fort Worth TRACON
02:33PM 32.9667 -96.8500 209° Southwest 203 234 2,700 -420 Descending Dallas / Fort Worth TRACON
02:34PM 32.9333 -96.8833 220° Southwest 191 220 2,300 -720 Descending Dallas / Fort Worth TRACON
02:35PM 32.8833 -96.8833 180° South 143 165 1,300 -960 Descending Dallas / Fort Worth TRACON
02:38PM 32.8471 -96.8518 40° Northeast  Level Estimated